createdAt,value
2023-04-17T00:00:44.106Z,28.95
2023-04-17T00:01:44.174Z,28.99
2023-04-17T00:02:44.330Z,28.97
2023-04-17T00:03:44.462Z,28.96
2023-04-17T00:04:44.474Z,28.96
2023-04-17T00:05:44.438Z,28.96
2023-04-17T00:06:44.474Z,28.96
2023-04-17T00:07:44.513Z,28.97
2023-04-17T00:08:44.599Z,28.99
2023-04-17T00:09:44.678Z,28.98
2023-04-17T00:10:48.988Z,28.99
2023-04-17T00:11:45.710Z,28.99
2023-04-17T00:12:44.740Z,28.99
2023-04-17T00:13:44.704Z,28.99
2023-04-17T00:14:44.696Z,28.99
2023-04-17T00:15:44.714Z,28.99
2023-04-17T00:16:44.730Z,28.97
2023-04-17T00:17:44.741Z,29.00
2023-04-17T00:18:44.691Z,28.98
2023-04-17T00:19:44.692Z,28.99
2023-04-17T00:20:44.723Z,29.00
2023-04-17T00:21:44.765Z,28.98
2023-04-17T00:22:44.824Z,28.98
2023-04-17T00:23:44.929Z,29.00
2023-04-17T00:24:44.978Z,29.00
2023-04-17T00:25:45.053Z,28.99
2023-04-17T00:26:45.081Z,28.99
2023-04-17T00:27:45.194Z,28.99
2023-04-17T00:28:45.234Z,29.00
2023-04-17T00:29:45.278Z,29.01
2023-04-17T00:30:45.346Z,29.03
2023-04-17T00:31:45.424Z,29.00
2023-04-17T00:32:45.440Z,28.99
2023-04-17T00:33:45.507Z,29.01
2023-04-17T00:34:45.589Z,28.99
2023-04-17T00:35:45.636Z,29.01
2023-04-17T00:36:45.677Z,29.00
2023-04-17T00:37:45.739Z,29.00
2023-04-17T00:38:45.788Z,29.01
2023-04-17T00:39:45.845Z,28.98
2023-04-17T00:40:45.901Z,28.99
2023-04-17T00:41:45.954Z,29.01
2023-04-17T00:42:46.034Z,29.02
2023-04-17T00:43:46.078Z,29.02
2023-04-17T00:44:46.163Z,29.02
2023-04-17T00:45:46.257Z,29.02
2023-04-17T00:46:46.253Z,28.99
2023-04-17T00:47:46.382Z,29.01
2023-04-17T00:48:46.355Z,29.03
2023-04-17T00:49:46.420Z,29.01
2023-04-17T00:50:46.491Z,29.02
2023-04-17T00:51:46.550Z,29.02
2023-04-17T00:52:46.612Z,29.01
2023-04-17T00:53:46.683Z,29.01
2023-04-17T00:54:46.692Z,29.02
2023-04-17T00:55:46.733Z,29.02
2023-04-17T00:56:46.797Z,29.01
2023-04-17T00:57:46.861Z,29.03
2023-04-17T00:58:46.906Z,29.02
2023-04-17T00:59:46.981Z,29.02
2023-04-17T01:00:47.061Z,29.02
2023-04-17T01:01:47.096Z,29.00
2023-04-17T01:02:47.358Z,29.02
2023-04-17T01:03:47.350Z,29.03
2023-04-17T01:04:47.292Z,29.02
2023-04-17T01:05:47.316Z,29.02
2023-04-17T01:06:47.414Z,29.02
2023-04-17T01:07:47.479Z,29.02
2023-04-17T01:08:47.542Z,29.03
2023-04-17T01:09:47.622Z,29.02
2023-04-17T01:10:47.647Z,29.01
2023-04-17T01:11:47.736Z,29.02
2023-04-17T01:12:47.785Z,29.02
2023-04-17T01:13:47.822Z,29.02
2023-04-17T01:14:47.905Z,29.02
2023-04-17T01:15:47.956Z,29.02
2023-04-17T01:16:48.034Z,29.03
2023-04-17T01:17:48.192Z,29.04
2023-04-17T01:18:48.157Z,29.02
2023-04-17T01:19:48.223Z,29.03
2023-04-17T01:20:48.261Z,29.04
2023-04-17T01:21:48.355Z,29.02
2023-04-17T01:22:48.349Z,29.04
2023-04-17T01:23:48.411Z,29.06
2023-04-17T01:24:48.438Z,29.05
2023-04-17T01:25:48.498Z,29.06
2023-04-17T01:26:48.562Z,29.05
2023-04-17T01:27:48.602Z,29.03
2023-04-17T01:28:48.638Z,29.05
2023-04-17T01:29:48.683Z,29.07
2023-04-17T01:30:48.777Z,29.05
2023-04-17T01:31:48.849Z,29.06
2023-04-17T01:32:48.991Z,29.06
2023-04-17T01:33:48.927Z,29.06
2023-04-17T01:34:49.008Z,29.04
2023-04-17T01:35:49.065Z,29.06
2023-04-17T01:36:49.131Z,29.05
2023-04-17T01:37:49.172Z,29.05
2023-04-17T01:38:49.246Z,29.06
2023-04-17T01:39:49.278Z,29.07
2023-04-17T01:40:49.341Z,29.07
2023-04-17T01:41:49.418Z,29.05
2023-04-17T01:42:49.487Z,29.07
2023-04-17T01:43:49.544Z,29.06
2023-04-17T01:44:49.572Z,29.04
2023-04-17T01:45:49.661Z,29.06
2023-04-17T01:46:49.690Z,29.07
2023-04-17T01:47:49.878Z,29.07
2023-04-17T01:48:49.820Z,29.06
2023-04-17T01:49:49.899Z,29.06
2023-04-17T01:50:49.931Z,29.05
2023-04-17T01:51:49.982Z,29.06
2023-04-17T01:52:50.074Z,29.07
2023-04-17T01:53:50.120Z,29.06
2023-04-17T01:54:50.210Z,29.06
2023-04-17T01:55:50.217Z,29.07
2023-04-17T01:56:50.262Z,29.06
2023-04-17T01:57:50.288Z,29.06
2023-04-17T01:58:50.348Z,29.05
2023-04-17T01:59:50.384Z,29.06
2023-04-17T02:00:50.425Z,29.09
2023-04-17T02:01:50.516Z,29.07
2023-04-17T02:02:51.438Z,29.07
2023-04-17T02:03:50.695Z,29.07
2023-04-17T02:04:50.571Z,29.07
2023-04-17T02:05:50.631Z,29.09
2023-04-17T02:06:50.676Z,29.07
2023-04-17T02:07:50.722Z,29.07
2023-04-17T02:08:50.728Z,29.07
2023-04-17T02:09:50.794Z,29.07
2023-04-17T02:10:50.855Z,29.09
2023-04-17T02:11:50.875Z,29.07
2023-04-17T02:12:50.897Z,29.07
2023-04-17T02:13:50.876Z,29.07
2023-04-17T02:14:50.928Z,29.07
2023-04-17T02:15:51.008Z,29.07
2023-04-17T02:16:51.023Z,29.08
2023-04-17T02:17:51.139Z,29.08
2023-04-17T02:18:51.151Z,29.06
2023-04-17T02:19:51.168Z,29.08
2023-04-17T02:20:51.213Z,29.07
2023-04-17T02:21:51.203Z,29.11
2023-04-17T02:22:51.244Z,29.09
2023-04-17T02:23:51.271Z,29.08
2023-04-17T02:24:51.317Z,29.07
2023-04-17T02:25:51.340Z,29.08
2023-04-17T02:26:51.341Z,29.06
2023-04-17T02:27:51.310Z,29.10
2023-04-17T02:28:51.309Z,29.10
2023-04-17T02:29:51.369Z,29.10
2023-04-17T02:30:51.406Z,29.08
2023-04-17T02:31:51.510Z,29.09
2023-04-17T02:32:51.511Z,29.10
2023-04-17T02:33:51.528Z,29.10
2023-04-17T02:34:51.598Z,29.09
2023-04-17T02:35:51.651Z,29.09
2023-04-17T02:36:51.637Z,29.10
2023-04-17T02:37:51.727Z,29.08
2023-04-17T02:38:51.764Z,29.09
2023-04-17T02:39:51.754Z,29.12
2023-04-17T02:40:51.790Z,29.08
2023-04-17T02:41:51.848Z,29.11
2023-04-17T02:42:51.907Z,29.08
2023-04-17T02:43:51.967Z,29.11
2023-04-17T02:44:52.009Z,29.07
2023-04-17T02:45:52.048Z,29.10
2023-04-17T02:46:52.066Z,29.09
2023-04-17T02:47:52.151Z,29.10
2023-04-17T02:48:52.100Z,29.10
2023-04-17T02:49:52.142Z,29.11
2023-04-17T02:50:52.185Z,29.09
2023-04-17T02:51:52.223Z,29.09
2023-04-17T02:52:52.248Z,29.10
2023-04-17T02:53:52.274Z,29.11
2023-04-17T02:54:52.327Z,29.08
2023-04-17T02:55:52.352Z,29.10
2023-04-17T02:56:52.323Z,29.11
2023-04-17T02:57:52.330Z,29.10
2023-04-17T02:58:52.348Z,29.10
2023-04-17T02:59:52.330Z,29.10
2023-04-17T03:00:52.443Z,29.11
2023-04-17T03:01:52.478Z,29.10
2023-04-17T03:02:52.603Z,29.13
2023-04-17T03:03:52.904Z,29.10
2023-04-17T03:04:52.547Z,29.10
2023-04-17T03:05:52.584Z,29.11
2023-04-17T03:06:52.643Z,29.09
2023-04-17T03:07:52.658Z,29.10
2023-04-17T03:08:52.635Z,29.10
2023-04-17T03:09:52.685Z,29.09
2023-04-17T03:10:52.697Z,29.12
2023-04-17T03:11:52.706Z,29.11
2023-04-17T03:12:52.738Z,29.10
2023-04-17T03:13:52.772Z,29.10
2023-04-17T03:14:52.797Z,29.13
2023-04-17T03:15:52.830Z,29.10
2023-04-17T03:16:53.004Z,29.12
2023-04-17T03:17:52.972Z,29.11
2023-04-17T03:18:52.945Z,29.11
2023-04-17T03:19:52.971Z,29.12
2023-04-17T03:20:52.990Z,29.10
2023-04-17T03:21:53.030Z,29.10
2023-04-17T03:22:53.054Z,29.11
2023-04-17T03:23:53.074Z,29.11
2023-04-17T03:24:53.168Z,29.07
2023-04-17T03:25:53.197Z,29.07
2023-04-17T03:26:53.230Z,29.09
2023-04-17T03:27:53.295Z,29.12
2023-04-17T03:28:53.329Z,29.09
2023-04-17T03:29:53.391Z,29.10
2023-04-17T03:30:53.445Z,29.08
2023-04-17T03:31:53.506Z,29.10
2023-04-17T03:32:53.606Z,29.11
2023-04-17T03:33:53.588Z,29.10
2023-04-17T03:34:53.640Z,29.10
2023-04-17T03:35:53.705Z,29.10
2023-04-17T03:36:53.772Z,29.08
2023-04-17T03:37:53.819Z,29.10
2023-04-17T03:38:53.885Z,29.10
2023-04-17T03:39:53.881Z,29.10
2023-04-17T03:40:53.982Z,29.10
2023-04-17T03:41:54.012Z,29.09
2023-04-17T03:42:54.050Z,29.09
2023-04-17T03:43:54.095Z,29.11
2023-04-17T03:44:54.153Z,29.09
2023-04-17T03:45:54.186Z,29.11
2023-04-17T03:46:54.252Z,29.09
2023-04-17T03:47:54.385Z,29.09
2023-04-17T03:48:54.331Z,29.09
2023-04-17T03:49:54.366Z,29.09
2023-04-17T03:50:54.420Z,29.09
2023-04-17T03:51:54.466Z,29.11
2023-04-17T03:52:54.489Z,29.10
2023-04-17T03:53:54.559Z,29.09
2023-04-17T03:54:54.606Z,29.10
2023-04-17T03:55:54.616Z,29.10
2023-04-17T03:56:54.716Z,29.10
2023-04-17T03:57:54.726Z,29.10
2023-04-17T03:58:54.774Z,29.08
2023-04-17T03:59:54.816Z,29.10
2023-04-17T04:00:54.838Z,29.10
2023-04-17T04:01:54.926Z,29.11
2023-04-17T04:02:55.048Z,29.10
2023-04-17T04:03:55.131Z,29.09
2023-04-17T04:04:55.168Z,29.11
2023-04-17T04:05:55.061Z,29.09
2023-04-17T04:06:55.083Z,29.10
2023-04-17T04:07:55.145Z,29.11
2023-04-17T04:08:55.161Z,29.09
2023-04-17T04:09:56.220Z,29.10
2023-04-17T04:10:55.218Z,29.10
2023-04-17T04:11:55.253Z,29.10
2023-04-17T04:12:55.265Z,29.10
2023-04-17T04:13:55.313Z,29.11
2023-04-17T04:14:55.311Z,29.11
2023-04-17T04:15:55.432Z,29.07
2023-04-17T04:16:55.411Z,29.10
2023-04-17T04:17:55.446Z,29.10
2023-04-17T04:18:55.464Z,29.11
2023-04-17T04:19:55.481Z,29.08
2023-04-17T04:20:55.542Z,29.10
2023-04-17T04:21:55.604Z,29.09
2023-04-17T04:22:55.659Z,29.10
2023-04-17T04:23:55.674Z,29.10
2023-04-17T04:24:55.728Z,29.11
2023-04-17T04:25:55.813Z,29.10
2023-04-17T04:26:55.831Z,29.10
2023-04-17T04:27:55.885Z,29.10
2023-04-17T04:28:55.929Z,29.11
2023-04-17T04:29:55.939Z,29.09
2023-04-17T04:30:55.997Z,29.08
2023-04-17T04:31:56.101Z,29.08
2023-04-17T04:32:56.158Z,29.11
2023-04-17T04:33:56.114Z,29.09
2023-04-17T04:34:56.195Z,29.10
2023-04-17T04:35:56.281Z,29.09
2023-04-17T04:36:56.320Z,29.11
2023-04-17T04:37:56.366Z,29.09
2023-04-17T04:38:56.415Z,29.12
2023-04-17T04:39:56.480Z,29.11
2023-04-17T04:40:56.556Z,29.13
2023-04-17T04:41:56.585Z,29.11
2023-04-17T04:42:56.643Z,29.10
2023-04-17T04:43:56.709Z,29.10
2023-04-17T04:44:56.727Z,29.08
2023-04-17T04:45:56.797Z,29.11
2023-04-17T04:46:56.887Z,29.09
2023-04-17T04:47:56.921Z,29.11
2023-04-17T04:48:56.910Z,29.11
2023-04-17T04:49:56.966Z,29.10
2023-04-17T04:50:57.025Z,29.12
2023-04-17T04:51:57.015Z,29.10
2023-04-17T04:52:57.050Z,29.11
2023-04-17T04:53:57.128Z,29.10
2023-04-17T04:54:57.156Z,29.10
2023-04-17T04:55:57.177Z,29.09
2023-04-17T04:56:57.175Z,29.10
2023-04-17T04:57:57.166Z,29.13
2023-04-17T04:58:57.228Z,29.12
2023-04-17T04:59:57.197Z,29.12
2023-04-17T05:00:57.360Z,29.11
2023-04-17T05:01:57.351Z,29.10
2023-04-17T05:02:57.441Z,29.10
2023-04-17T05:03:57.421Z,29.09
2023-04-17T05:04:57.602Z,29.10
2023-04-17T05:05:57.456Z,29.11
2023-04-17T05:06:58.290Z,29.08
2023-04-17T05:07:57.455Z,29.10
2023-04-17T05:08:57.507Z,29.10
2023-04-17T05:09:57.543Z,29.10
2023-04-17T05:10:57.647Z,29.10
2023-04-17T05:11:57.684Z,29.06
2023-04-17T05:12:57.745Z,29.11
2023-04-17T05:13:57.777Z,29.10
2023-04-17T05:14:57.808Z,29.09
2023-04-17T05:16:00.274Z,29.09
2023-04-17T05:16:58.891Z,29.09
2023-04-17T05:17:57.933Z,29.08
2023-04-17T05:18:57.875Z,29.10
2023-04-17T05:19:57.821Z,29.10
2023-04-17T05:20:57.851Z,29.08
2023-04-17T05:21:57.869Z,29.10
2023-04-17T05:22:57.839Z,29.10
2023-04-17T05:23:57.849Z,29.12
2023-04-17T05:24:57.823Z,29.10
2023-04-17T05:25:57.868Z,29.08
2023-04-17T05:26:57.862Z,29.09
2023-04-17T05:27:57.897Z,29.10
2023-04-17T05:28:57.959Z,29.10
2023-04-17T05:29:58.038Z,29.09
2023-04-17T05:30:58.114Z,29.11
2023-04-17T05:31:58.183Z,29.12
2023-04-17T05:32:58.222Z,29.11
2023-04-17T05:33:58.244Z,29.11
2023-04-17T05:34:58.285Z,29.13
2023-04-17T05:35:58.310Z,29.14
2023-04-17T05:36:58.399Z,29.12
2023-04-17T05:37:58.386Z,29.49
2023-04-17T05:38:58.444Z,29.58
2023-04-17T05:39:58.516Z,29.46
2023-04-17T05:40:58.559Z,29.43
2023-04-17T05:41:58.579Z,29.52
2023-04-17T05:42:58.674Z,29.64
2023-04-17T05:43:58.749Z,29.74
2023-04-17T05:44:58.807Z,29.84
2023-04-17T05:45:59.413Z,29.91
2023-04-17T05:46:58.937Z,30.16
2023-04-17T05:47:59.030Z,30.39
2023-04-17T05:48:59.059Z,30.50
2023-04-17T05:49:59.093Z,30.80
2023-04-17T05:50:59.186Z,31.06
2023-04-17T05:51:59.247Z,31.51
2023-04-17T05:52:59.280Z,31.58
2023-04-17T05:53:59.331Z,31.60
2023-04-17T05:54:59.366Z,32.33
2023-04-17T05:55:59.434Z,32.46
2023-04-17T05:56:59.821Z,32.78
2023-04-17T05:58:00.262Z,33.28
2023-04-17T05:58:59.508Z,34.03
2023-04-17T05:59:59.490Z,33.61
2023-04-17T06:00:59.458Z,34.05
2023-04-17T06:01:59.767Z,34.08
2023-04-17T06:02:59.646Z,34.21
2023-04-17T06:04:00.825Z,34.51
2023-04-17T06:04:59.682Z,34.87
2023-04-17T06:05:59.586Z,35.40
2023-04-17T06:06:59.483Z,35.78
2023-04-17T06:07:59.415Z,35.69
2023-04-17T06:08:59.418Z,35.82
2023-04-17T06:09:59.428Z,35.82
2023-04-17T06:10:59.442Z,36.05
2023-04-17T06:11:59.414Z,36.22
2023-04-17T06:12:59.403Z,36.29
2023-04-17T06:13:59.423Z,36.22
2023-04-17T06:14:59.496Z,36.26
2023-04-17T06:15:59.544Z,36.31
2023-04-17T06:16:59.621Z,36.41
2023-04-17T06:17:59.629Z,36.56
2023-04-17T06:18:59.677Z,36.55
2023-04-17T06:19:59.719Z,36.55
2023-04-17T06:20:59.763Z,36.69
2023-04-17T06:21:59.809Z,36.59
2023-04-17T06:22:59.897Z,36.94
2023-04-17T06:23:59.947Z,36.96
2023-04-17T06:24:59.980Z,37.19
2023-04-17T06:26:00.027Z,37.09
2023-04-17T06:27:00.027Z,36.90
2023-04-17T06:28:00.092Z,36.79
2023-04-17T06:29:00.144Z,36.89
2023-04-17T06:30:00.220Z,36.89
2023-04-17T06:31:00.302Z,36.89
2023-04-17T06:32:00.240Z,36.98
2023-04-17T06:33:00.360Z,37.09
2023-04-17T06:34:00.324Z,37.22
2023-04-17T06:35:00.369Z,37.49
2023-04-17T06:36:00.396Z,37.55
2023-04-17T06:37:00.435Z,37.75
2023-04-17T06:38:00.485Z,37.61
2023-04-17T06:39:00.487Z,37.71
2023-04-17T06:40:00.567Z,37.64
2023-04-17T06:41:00.594Z,37.71
2023-04-17T06:42:00.653Z,37.69
2023-04-17T06:43:00.672Z,38.07
2023-04-17T06:44:00.701Z,37.95
2023-04-17T06:45:00.749Z,37.95
2023-04-17T06:46:00.808Z,38.22
2023-04-17T06:47:02.922Z,38.26
2023-04-17T06:48:00.928Z,38.60
2023-04-17T06:49:00.882Z,38.54
2023-04-17T06:50:00.945Z,38.46
2023-04-17T06:51:00.980Z,38.01
2023-04-17T06:52:01.350Z,38.07
2023-04-17T06:53:01.097Z,37.95
2023-04-17T06:54:01.111Z,37.93
2023-04-17T06:55:01.185Z,37.97
2023-04-17T06:56:01.202Z,38.02
2023-04-17T06:57:01.214Z,38.21
2023-04-17T06:58:01.280Z,38.11
2023-04-17T06:59:02.867Z,38.21
2023-04-17T07:00:01.338Z,38.25
2023-04-17T07:01:01.404Z,38.28
2023-04-17T07:02:01.507Z,38.32
2023-04-17T07:03:01.443Z,38.41
2023-04-17T07:04:01.592Z,38.42
2023-04-17T07:05:01.494Z,38.40
2023-04-17T07:06:01.540Z,38.48
2023-04-17T07:07:01.845Z,38.48
2023-04-17T07:08:01.595Z,38.56
2023-04-17T07:09:01.620Z,38.58
2023-04-17T07:10:01.653Z,38.66
2023-04-17T07:11:01.627Z,38.76
2023-04-17T07:12:01.674Z,39.10
2023-04-17T07:13:01.790Z,39.02
2023-04-17T07:14:01.775Z,39.17
2023-04-17T07:15:01.951Z,39.02
2023-04-17T07:16:01.931Z,39.07
2023-04-17T07:17:01.850Z,39.16
2023-04-17T07:18:03.440Z,39.21
2023-04-17T07:19:01.834Z,39.27
2023-04-17T07:20:01.851Z,39.36
2023-04-17T07:21:01.896Z,39.47
2023-04-17T07:22:01.931Z,39.43
2023-04-17T07:23:01.875Z,39.59
2023-04-17T07:24:01.935Z,39.61
2023-04-17T07:25:01.935Z,39.63
2023-04-17T07:26:01.957Z,39.68
2023-04-17T07:27:02.335Z,39.71
2023-04-17T07:28:03.292Z,39.80
2023-04-17T07:29:01.984Z,39.89
2023-04-17T07:30:01.983Z,39.87
2023-04-17T07:31:02.022Z,39.84
2023-04-17T07:32:02.070Z,39.88
2023-04-17T07:33:02.127Z,39.88
2023-04-17T07:34:01.986Z,39.95
2023-04-17T07:35:02.019Z,40.04
2023-04-17T07:36:02.006Z,40.15
2023-04-17T07:37:02.008Z,40.16
2023-04-17T07:38:02.024Z,40.19
2023-04-17T07:39:02.002Z,40.25
2023-04-17T07:40:01.972Z,40.42
2023-04-17T07:41:02.010Z,40.49
2023-04-17T07:42:02.418Z,40.44
2023-04-17T07:43:02.345Z,40.31
2023-04-17T07:44:01.989Z,40.19
2023-04-17T07:45:02.033Z,40.10
2023-04-17T07:46:02.028Z,39.95
2023-04-17T07:47:02.039Z,39.84
2023-04-17T07:48:02.048Z,39.78
2023-04-17T07:49:01.949Z,39.51
2023-04-17T07:50:02.100Z,39.56
2023-04-17T07:51:02.016Z,39.42
2023-04-17T07:52:02.043Z,35.90
2023-04-17T07:53:02.031Z,33.51
2023-04-17T07:54:02.109Z,32.94
2023-04-17T07:55:02.172Z,31.96
2023-04-17T07:56:02.178Z,31.87
2023-04-17T07:57:02.178Z,32.23
2023-04-17T07:58:02.174Z,32.76
2023-04-17T07:59:02.225Z,32.74
2023-04-17T08:00:02.322Z,33.37
2023-04-17T08:01:02.341Z,32.58
2023-04-17T08:02:02.445Z,32.40
2023-04-17T08:03:02.753Z,32.18
2023-04-17T08:04:02.908Z,32.25
2023-04-17T08:05:02.640Z,32.27
2023-04-17T08:06:02.429Z,32.83
2023-04-17T08:07:02.498Z,33.38
2023-04-17T08:08:02.541Z,34.00
2023-04-17T08:09:02.577Z,34.10
2023-04-17T08:10:02.628Z,34.35
2023-04-17T08:11:02.641Z,34.47
2023-04-17T08:12:02.717Z,34.68
2023-04-17T08:13:02.742Z,34.71
2023-04-17T08:14:02.704Z,34.83
2023-04-17T08:15:02.694Z,34.87
2023-04-17T08:16:02.776Z,34.88
2023-04-17T08:17:02.897Z,34.96
2023-04-17T08:18:02.953Z,35.00
2023-04-17T08:19:02.900Z,35.05
2023-04-17T08:20:02.960Z,35.23
2023-04-17T08:21:03.043Z,35.33
2023-04-17T08:22:03.075Z,35.41
2023-04-17T08:23:03.092Z,35.47
2023-04-17T08:24:03.158Z,35.52
2023-04-17T08:25:03.179Z,35.61
2023-04-17T08:26:03.257Z,35.73
2023-04-17T08:27:03.305Z,35.81
2023-04-17T08:28:03.325Z,35.92
2023-04-17T08:29:03.358Z,35.96
2023-04-17T08:30:03.405Z,36.02
2023-04-17T08:31:03.488Z,36.07
2023-04-17T08:32:14.004Z,36.20
2023-04-17T08:33:04.457Z,36.28
2023-04-17T08:34:13.622Z,36.42
2023-04-17T08:35:04.422Z,36.56
2023-04-17T08:36:04.276Z,36.65
2023-04-17T08:37:03.874Z,36.58
2023-04-17T08:38:03.386Z,36.55
2023-04-17T08:39:03.457Z,36.55
2023-04-17T08:40:03.363Z,36.53
2023-04-17T08:41:03.400Z,36.54
2023-04-17T08:42:03.363Z,35.39
2023-04-17T08:43:03.382Z,35.51
2023-04-17T08:44:03.357Z,36.01
2023-04-17T08:45:03.376Z,35.42
2023-04-17T08:46:03.367Z,36.58
2023-04-17T08:47:03.296Z,36.56
2023-04-17T08:48:03.385Z,37.39
2023-04-17T08:49:03.287Z,37.30
2023-04-17T08:50:03.307Z,37.77
2023-04-17T08:51:03.265Z,37.83
2023-04-17T08:52:03.337Z,36.22
2023-04-17T08:53:03.412Z,37.30
2023-04-17T08:54:03.404Z,37.31
2023-04-17T08:55:03.462Z,37.43
2023-04-17T08:56:04.141Z,37.54
2023-04-17T08:57:03.570Z,37.42
2023-04-17T08:58:03.619Z,37.40
2023-04-17T08:59:03.646Z,37.41
2023-04-17T09:00:03.685Z,37.24
2023-04-17T09:01:03.778Z,37.01
2023-04-17T09:02:03.936Z,36.97
2023-04-17T09:03:04.091Z,36.84
2023-04-17T09:04:04.060Z,36.80
2023-04-17T09:05:04.047Z,36.76
2023-04-17T09:06:03.992Z,36.57
2023-04-17T09:07:04.028Z,36.51
2023-04-17T09:08:04.105Z,36.20
2023-04-17T09:09:04.178Z,36.02
2023-04-17T09:10:04.216Z,35.94
2023-04-17T09:11:04.292Z,35.81
2023-04-17T09:12:04.317Z,35.62
2023-04-17T09:13:04.417Z,35.13
2023-04-17T09:14:04.455Z,34.42
2023-04-17T09:15:04.571Z,34.47
2023-04-17T09:16:04.676Z,34.27
2023-04-17T09:17:04.668Z,34.23
2023-04-17T09:18:04.725Z,33.54
2023-04-17T09:19:04.780Z,32.80
2023-04-17T09:20:04.792Z,32.02
2023-04-17T09:21:04.825Z,32.28
2023-04-17T09:22:04.809Z,31.53
2023-04-17T09:23:04.826Z,31.62
2023-04-17T09:24:04.790Z,32.63
2023-04-17T09:25:04.816Z,33.12
2023-04-17T09:26:04.802Z,33.38
2023-04-17T09:27:04.802Z,33.37
2023-04-17T09:28:04.794Z,33.22
2023-04-17T09:29:04.903Z,33.07
2023-04-17T09:30:04.790Z,33.12
2023-04-17T09:31:04.841Z,33.06
2023-04-17T09:32:04.837Z,33.09
2023-04-17T09:33:04.976Z,32.88
2023-04-17T09:34:04.828Z,32.72
2023-04-17T09:35:04.822Z,32.62
2023-04-17T09:36:04.881Z,32.48
2023-04-17T09:37:04.919Z,32.64
2023-04-17T09:38:04.911Z,32.73
2023-04-17T09:39:04.928Z,32.70
2023-04-17T09:40:05.296Z,32.74
2023-04-17T09:41:05.041Z,32.74
2023-04-17T09:42:05.071Z,32.74
2023-04-17T09:43:06.132Z,32.64
2023-04-17T09:44:05.167Z,32.76
2023-04-17T09:45:05.226Z,32.79
2023-04-17T09:46:05.275Z,32.77
2023-04-17T09:47:05.404Z,32.76
2023-04-17T09:48:05.927Z,32.80
2023-04-17T09:49:05.501Z,32.82
2023-04-17T09:50:05.474Z,32.83
2023-04-17T09:51:05.565Z,32.82
2023-04-17T09:52:05.623Z,32.84
2023-04-17T09:53:05.756Z,32.85
2023-04-17T09:54:05.746Z,32.84
2023-04-17T09:55:05.804Z,32.88
2023-04-17T09:56:05.846Z,32.88
2023-04-17T09:57:05.904Z,32.87
2023-04-17T09:58:05.975Z,32.87
2023-04-17T09:59:06.044Z,32.87
2023-04-17T10:00:06.068Z,32.88
2023-04-17T10:01:06.206Z,32.86
2023-04-17T10:02:06.279Z,32.86
2023-04-17T10:03:06.374Z,32.87
2023-04-17T10:04:06.473Z,32.84
2023-04-17T10:05:06.342Z,32.82
2023-04-17T10:06:06.405Z,32.85
2023-04-17T10:07:06.483Z,32.85
2023-04-17T10:08:06.525Z,32.83
2023-04-17T10:09:06.596Z,32.82
2023-04-17T10:10:06.637Z,32.82
2023-04-17T10:11:06.724Z,32.86
2023-04-17T10:12:06.769Z,32.84
2023-04-17T10:13:06.816Z,32.86
2023-04-17T10:14:06.855Z,32.85
2023-04-17T10:15:06.904Z,32.85
2023-04-17T10:16:07.061Z,32.87
2023-04-17T10:17:07.064Z,32.85
2023-04-17T10:18:07.475Z,32.84
2023-04-17T10:19:07.168Z,32.82
2023-04-17T10:20:07.204Z,32.84
2023-04-17T10:21:07.297Z,32.87
2023-04-17T10:22:07.401Z,32.88
2023-04-17T10:23:07.378Z,32.89
2023-04-17T10:24:07.477Z,32.88
2023-04-17T10:25:07.545Z,32.86
2023-04-17T10:26:09.477Z,32.87
2023-04-17T10:27:08.212Z,32.91
2023-04-17T10:28:07.694Z,32.88
2023-04-17T10:29:07.731Z,32.89
2023-04-17T10:30:07.815Z,32.91
2023-04-17T10:31:07.824Z,32.90
2023-04-17T10:32:07.995Z,32.88
2023-04-17T10:33:09.639Z,32.88
2023-04-17T10:34:08.072Z,32.86
2023-04-17T10:35:08.067Z,32.87
2023-04-17T10:36:08.118Z,32.87
2023-04-17T10:37:08.176Z,32.87
2023-04-17T10:38:08.441Z,32.88
2023-04-17T10:39:08.300Z,32.86
2023-04-17T10:40:08.346Z,32.87
2023-04-17T10:41:08.399Z,32.88
2023-04-17T10:42:08.434Z,32.85
2023-04-17T10:43:08.485Z,32.86
2023-04-17T10:44:08.572Z,32.85
2023-04-17T10:45:08.586Z,32.87
2023-04-17T10:46:08.726Z,32.86
2023-04-17T10:47:08.753Z,32.84
2023-04-17T10:48:08.895Z,32.83
2023-04-17T10:49:08.932Z,32.80
2023-04-17T10:50:08.925Z,32.83
2023-04-17T10:51:09.005Z,32.82
2023-04-17T10:52:09.003Z,32.81
2023-04-17T10:53:09.088Z,32.79
2023-04-17T10:54:09.088Z,32.80
2023-04-17T10:55:09.181Z,32.80
2023-04-17T10:56:09.216Z,32.79
2023-04-17T10:57:09.281Z,32.77
2023-04-17T10:58:09.320Z,32.77
2023-04-17T10:59:09.390Z,32.77
2023-04-17T11:00:09.462Z,32.74
2023-04-17T11:01:09.617Z,32.73
2023-04-17T11:02:09.656Z,32.73
2023-04-17T11:03:10.031Z,32.71
2023-04-17T11:04:09.647Z,32.71
2023-04-17T11:05:09.709Z,32.72
2023-04-17T11:06:09.798Z,32.70
2023-04-17T11:07:09.816Z,32.71
2023-04-17T11:08:09.873Z,32.67
2023-04-17T11:09:09.934Z,32.67
2023-04-17T11:10:09.984Z,32.66
2023-04-17T11:11:10.049Z,32.67
2023-04-17T11:12:10.101Z,32.66
2023-04-17T11:13:10.214Z,32.65
2023-04-17T11:14:12.029Z,32.63
2023-04-17T11:15:10.232Z,32.64
2023-04-17T11:16:10.226Z,32.63
2023-04-17T11:17:10.314Z,32.63
2023-04-17T11:18:10.252Z,32.61
2023-04-17T11:19:10.492Z,32.58
2023-04-17T11:20:10.218Z,32.59
2023-04-17T11:21:10.181Z,32.58
2023-04-17T11:22:10.213Z,32.55
2023-04-17T11:23:10.234Z,32.54
2023-04-17T11:24:10.164Z,32.53
2023-04-17T11:25:10.177Z,32.54
2023-04-17T11:26:10.163Z,32.50
2023-04-17T11:27:10.186Z,32.50
2023-04-17T11:28:10.161Z,32.48
2023-04-17T11:29:10.356Z,32.46
2023-04-17T11:30:10.167Z,32.47
2023-04-17T11:31:10.375Z,32.47
2023-04-17T11:32:10.184Z,32.47
2023-04-17T11:33:10.515Z,32.46
2023-04-17T11:34:10.209Z,32.46
2023-04-17T11:35:10.078Z,32.48
2023-04-17T11:36:10.080Z,32.46
2023-04-17T11:37:10.069Z,32.45
2023-04-17T11:38:10.109Z,32.46
2023-04-17T11:39:10.118Z,32.45
2023-04-17T11:40:10.060Z,32.44
2023-04-17T11:41:10.055Z,32.43
2023-04-17T11:42:10.038Z,32.41
2023-04-17T11:43:10.029Z,32.41
2023-04-17T11:44:10.040Z,32.40
2023-04-17T11:45:10.009Z,32.41
2023-04-17T11:46:10.088Z,32.39
2023-04-17T11:47:10.019Z,32.40
2023-04-17T11:48:10.452Z,32.40
2023-04-17T11:49:10.360Z,32.38
2023-04-17T11:50:10.133Z,32.35
2023-04-17T11:51:10.200Z,32.35
2023-04-17T11:52:10.244Z,32.33
2023-04-17T11:53:10.305Z,32.33
2023-04-17T11:54:10.469Z,32.31
2023-04-17T11:55:10.385Z,32.27
2023-04-17T11:56:10.446Z,32.28
2023-04-17T11:57:10.492Z,32.25
2023-04-17T11:58:10.548Z,32.25
2023-04-17T11:59:10.835Z,32.23
2023-04-17T12:00:10.749Z,32.22
2023-04-17T12:01:10.695Z,32.21
2023-04-17T12:02:10.782Z,32.19
2023-04-17T12:03:10.897Z,32.18
2023-04-17T12:04:11.457Z,32.17
2023-04-17T12:05:11.085Z,32.16
2023-04-17T12:06:10.952Z,32.14
2023-04-17T12:07:10.974Z,32.14
2023-04-17T12:08:11.024Z,32.14
2023-04-17T12:09:11.283Z,32.11
2023-04-17T12:10:11.126Z,32.10
2023-04-17T12:11:11.939Z,32.10
2023-04-17T12:12:11.258Z,32.12
2023-04-17T12:13:11.282Z,32.10
2023-04-17T12:14:11.758Z,32.09
2023-04-17T12:15:11.394Z,32.10
2023-04-17T12:16:11.456Z,32.08
2023-04-17T12:17:11.505Z,32.10
2023-04-17T12:18:11.558Z,32.09
2023-04-17T12:19:11.612Z,32.09
2023-04-17T12:20:11.602Z,32.09
2023-04-17T12:21:11.684Z,32.10
2023-04-17T12:22:11.747Z,32.09
2023-04-17T12:23:11.754Z,32.10
2023-04-17T12:24:11.882Z,32.09
2023-04-17T12:25:11.854Z,32.06
2023-04-17T12:26:11.884Z,32.06
2023-04-17T12:27:11.963Z,32.06
2023-04-17T12:28:12.011Z,32.04
2023-04-17T12:29:12.027Z,32.05
2023-04-17T12:30:12.093Z,32.06
2023-04-17T12:31:12.269Z,32.04
2023-04-17T12:32:12.285Z,32.05
2023-04-17T12:33:13.995Z,32.06
2023-04-17T12:34:12.426Z,32.06
2023-04-17T12:35:12.303Z,32.06
2023-04-17T12:36:12.440Z,32.06
2023-04-17T12:37:12.409Z,32.06
2023-04-17T12:38:12.459Z,32.03
2023-04-17T12:39:12.478Z,32.05
2023-04-17T12:40:12.528Z,32.05
2023-04-17T12:41:12.626Z,32.01
2023-04-17T12:42:12.624Z,32.03
2023-04-17T12:43:12.683Z,32.00
2023-04-17T12:44:12.922Z,32.01
2023-04-17T12:45:12.784Z,32.01
2023-04-17T12:46:12.854Z,32.03
2023-04-17T12:47:12.885Z,32.02
2023-04-17T12:48:12.965Z,32.02
2023-04-17T12:49:13.160Z,32.02
2023-04-17T12:50:13.010Z,32.00
2023-04-17T12:51:13.060Z,31.99
2023-04-17T12:52:13.133Z,32.02
2023-04-17T12:53:13.165Z,32.00